createdAt,value
2024-04-23T00:00:03.061Z,26.15
2024-04-23T00:00:33.054Z,26.12
2024-04-23T00:01:03.131Z,26.16
2024-04-23T00:01:33.159Z,26.13
2024-04-23T00:02:03.161Z,26.13
2024-04-23T00:02:33.163Z,26.12
2024-04-23T00:03:03.221Z,26.13
2024-04-23T00:03:33.232Z,26.12
2024-04-23T00:04:03.336Z,26.10
2024-04-23T00:04:33.334Z,26.12
2024-04-23T00:05:03.466Z,26.15
2024-04-23T00:05:33.430Z,26.13
2024-04-23T00:06:03.519Z,26.12
2024-04-23T00:06:33.598Z,26.12
2024-04-23T00:07:03.672Z,26.12
2024-04-23T00:07:33.802Z,26.13
2024-04-23T00:08:03.843Z,26.13
2024-04-23T00:08:33.838Z,26.12
2024-04-23T00:09:03.901Z,26.13
2024-04-23T00:09:33.983Z,26.12
2024-04-23T00:10:04.075Z,26.12
2024-04-23T00:10:34.273Z,26.12
2024-04-23T00:11:04.389Z,26.13
2024-04-23T00:11:34.408Z,26.13
2024-04-23T00:12:04.364Z,26.12
2024-04-23T00:12:34.439Z,26.13
2024-04-23T00:13:04.551Z,26.13
2024-04-23T00:13:34.707Z,26.13
2024-04-23T00:14:04.683Z,26.12
2024-04-23T00:14:34.679Z,26.13
2024-04-23T00:15:34.789Z,26.13
2024-04-23T00:16:04.900Z,26.13
2024-04-23T00:16:35.067Z,26.12
2024-04-23T00:17:05.118Z,26.15
2024-04-23T00:17:35.223Z,26.10
2024-04-23T00:18:05.352Z,26.13
2024-04-23T00:18:35.358Z,26.13
2024-04-23T00:19:05.273Z,26.13
2024-04-23T00:19:35.489Z,26.12
2024-04-23T00:20:05.483Z,26.10
2024-04-23T00:20:35.479Z,26.16
2024-04-23T00:21:05.595Z,26.15
2024-04-23T00:21:35.734Z,26.13
2024-04-23T00:22:05.728Z,26.16
2024-04-23T00:22:35.761Z,26.13
2024-04-23T00:23:05.781Z,26.10
2024-04-23T00:23:35.914Z,26.12
2024-04-23T00:24:05.915Z,26.12
2024-04-23T00:25:05.987Z,26.15
2024-04-23T00:25:36.122Z,26.12
2024-04-23T00:26:06.243Z,26.15
2024-04-23T00:26:36.244Z,26.13
2024-04-23T00:27:06.360Z,26.12
2024-04-23T00:27:36.476Z,26.13
2024-04-23T00:28:06.603Z,26.13
2024-04-23T00:28:36.634Z,26.12
2024-04-23T00:29:36.712Z,26.12
2024-04-23T00:30:06.698Z,26.12
2024-04-23T00:31:06.767Z,26.13
2024-04-23T00:31:36.823Z,26.12
2024-04-23T00:32:06.988Z,26.13
2024-04-23T00:32:36.998Z,26.12
2024-04-23T00:33:06.953Z,26.12
2024-04-23T00:33:36.981Z,26.12
2024-04-23T00:34:06.987Z,26.12
2024-04-23T00:35:07.101Z,26.10
2024-04-23T00:35:37.077Z,26.10
2024-04-23T00:36:07.201Z,26.12
2024-04-23T00:36:37.310Z,26.10
2024-04-23T00:37:07.427Z,26.10
2024-04-23T00:37:37.461Z,26.10
2024-04-23T00:38:07.484Z,26.10
2024-04-23T00:38:37.471Z,26.12
2024-04-23T00:39:07.482Z,26.12
2024-04-23T00:39:37.523Z,26.12
2024-04-23T00:40:07.493Z,26.09
2024-04-23T00:40:37.522Z,26.12
2024-04-23T00:41:07.527Z,26.09
2024-04-23T00:41:39.735Z,26.12
2024-04-23T00:42:07.633Z,26.10
2024-04-23T00:42:37.634Z,26.10
2024-04-23T00:43:07.748Z,26.09
2024-04-23T00:43:37.734Z,26.10
2024-04-23T00:44:07.851Z,26.10
2024-04-23T00:44:37.963Z,26.10
2024-04-23T00:45:08.088Z,26.07
2024-04-23T00:45:38.085Z,26.07
2024-04-23T00:46:08.188Z,26.10
2024-04-23T00:46:38.244Z,26.09
2024-04-23T00:47:08.471Z,26.07
2024-04-23T00:47:38.371Z,26.09
2024-04-23T00:48:08.562Z,26.09
2024-04-23T00:48:38.552Z,26.09
2024-04-23T00:49:08.552Z,26.09
2024-04-23T00:49:38.676Z,26.09
2024-04-23T00:50:08.663Z,26.07
2024-04-23T00:50:38.790Z,26.06
2024-04-23T00:51:08.884Z,26.12
2024-04-23T00:51:39.002Z,26.10
2024-04-23T00:52:09.123Z,26.07
2024-04-23T00:52:39.122Z,26.09
2024-04-23T00:53:09.237Z,26.09
2024-04-23T00:53:39.230Z,26.09
2024-04-23T00:54:09.368Z,26.07
2024-04-23T00:54:39.513Z,26.09
2024-04-23T00:55:09.474Z,26.07
2024-04-23T00:55:39.605Z,26.07
2024-04-23T00:56:09.589Z,26.06
2024-04-23T00:56:39.583Z,26.09
2024-04-23T00:57:09.692Z,26.07
2024-04-23T00:57:39.812Z,26.06
2024-04-23T00:58:09.924Z,26.07
2024-04-23T00:58:42.560Z,26.07
2024-04-23T00:59:10.188Z,26.06
2024-04-23T00:59:40.200Z,26.06
2024-04-23T01:00:10.312Z,26.06
2024-04-23T01:00:40.527Z,26.07
2024-04-23T01:01:10.526Z,26.07
2024-04-23T01:01:40.440Z,26.05
2024-04-23T01:02:10.422Z,26.07
2024-04-23T01:02:40.442Z,26.07
2024-04-23T01:03:10.612Z,26.07
2024-04-23T01:03:40.628Z,26.07
2024-04-23T01:04:10.716Z,26.06
2024-04-23T01:04:40.810Z,26.05
2024-04-23T01:05:10.874Z,26.07
2024-04-23T01:05:40.973Z,26.05
2024-04-23T01:06:11.063Z,26.06
2024-04-23T01:06:41.133Z,26.09
2024-04-23T01:07:11.210Z,26.07
2024-04-23T01:07:41.306Z,26.09
2024-04-23T01:08:11.376Z,26.06
2024-04-23T01:08:41.451Z,26.07
2024-04-23T01:09:11.526Z,26.06
2024-04-23T01:09:41.598Z,26.06
2024-04-23T01:10:11.705Z,26.09
2024-04-23T01:10:41.790Z,26.06
2024-04-23T01:11:11.938Z,26.06
2024-04-23T01:11:41.945Z,26.05
2024-04-23T01:12:12.015Z,26.07
2024-04-23T01:12:42.097Z,26.05
2024-04-23T01:13:12.088Z,26.06
2024-04-23T01:14:12.179Z,26.05
2024-04-23T01:14:42.285Z,26.07
2024-04-23T01:15:12.412Z,26.07
2024-04-23T01:15:42.396Z,26.05
2024-04-23T01:16:12.540Z,26.07
2024-04-23T01:16:42.558Z,26.05
2024-04-23T01:17:12.706Z,26.06
2024-04-23T01:17:42.723Z,26.06
2024-04-23T01:18:12.852Z,26.05
2024-04-23T01:18:42.731Z,26.07
2024-04-23T01:19:12.848Z,26.06
2024-04-23T01:19:42.985Z,26.06
2024-04-23T01:20:12.981Z,26.07
2024-04-23T01:21:13.049Z,26.06
2024-04-23T01:21:43.158Z,26.03
2024-04-23T01:22:13.281Z,26.06
2024-04-23T01:22:43.313Z,26.03
2024-04-23T01:23:13.371Z,26.06
2024-04-23T01:23:43.469Z,26.06
2024-04-23T01:24:13.597Z,26.06
2024-04-23T01:24:43.594Z,26.06
2024-04-23T01:25:13.710Z,26.06
2024-04-23T01:25:43.751Z,26.06
2024-04-23T01:26:13.728Z,26.09
2024-04-23T01:26:43.850Z,26.05
2024-04-23T01:27:13.911Z,26.06
2024-04-23T01:27:44.007Z,26.07
2024-04-23T01:28:14.122Z,26.07
2024-04-23T01:28:44.339Z,26.06
2024-04-23T01:29:14.345Z,26.06
2024-04-23T01:29:44.336Z,26.05
2024-04-23T01:30:14.453Z,26.05
2024-04-23T01:30:44.568Z,26.06
2024-04-23T01:31:14.680Z,26.05
2024-04-23T01:31:44.849Z,26.07
2024-04-23T01:32:14.839Z,26.07
2024-04-23T01:32:45.018Z,26.07
2024-04-23T01:33:15.074Z,26.09
2024-04-23T01:33:45.049Z,26.06
2024-04-23T01:34:15.055Z,26.07
2024-04-23T01:34:45.205Z,26.09
2024-04-23T01:35:15.225Z,26.05
2024-04-23T01:35:45.274Z,26.06
2024-04-23T01:36:15.403Z,26.06
2024-04-23T01:36:45.506Z,26.03
2024-04-23T01:37:15.628Z,26.07
2024-04-23T01:37:45.654Z,26.06
2024-04-23T01:38:15.679Z,26.07
2024-04-23T01:38:45.680Z,26.06
2024-04-23T01:39:15.786Z,26.06
2024-04-23T01:39:45.908Z,26.09
2024-04-23T01:40:15.915Z,26.06
2024-04-23T01:41:15.922Z,26.05
2024-04-23T01:41:45.906Z,26.07
2024-04-23T01:42:16.015Z,26.09
2024-04-23T01:42:46.026Z,26.05
2024-04-23T01:43:16.024Z,26.06
2024-04-23T01:44:16.091Z,26.06
2024-04-23T01:44:46.085Z,26.05
2024-04-23T01:45:16.201Z,26.06
2024-04-23T01:45:46.312Z,26.06
2024-04-23T01:46:16.429Z,26.05
2024-04-23T01:46:46.531Z,26.05
2024-04-23T01:47:16.644Z,26.05
2024-04-23T01:47:46.781Z,26.05
2024-04-23T01:48:16.697Z,26.06
2024-04-23T01:48:46.606Z,26.06
2024-04-23T01:49:16.720Z,26.03
2024-04-23T01:49:46.874Z,26.05
2024-04-23T01:50:16.863Z,26.07
2024-04-23T01:50:46.969Z,26.05
2024-04-23T01:51:17.054Z,26.07
2024-04-23T01:51:47.167Z,26.03
2024-04-23T01:52:17.301Z,26.03
2024-04-23T01:52:47.385Z,26.03
2024-04-23T01:53:17.392Z,26.02
2024-04-23T01:53:47.424Z,26.03
2024-04-23T01:54:47.475Z,26.05
2024-04-23T01:55:17.594Z,26.03
2024-04-23T01:55:47.613Z,26.03
2024-04-23T01:56:17.595Z,26.05
2024-04-23T01:56:47.742Z,26.05
2024-04-23T01:57:17.831Z,26.03
2024-04-23T01:57:47.830Z,26.05
2024-04-23T01:58:17.949Z,26.06
2024-04-23T01:58:48.108Z,26.02
2024-04-23T01:59:18.094Z,26.06
2024-04-23T01:59:48.207Z,26.03
2024-04-23T02:00:18.343Z,26.03
2024-04-23T02:00:48.347Z,26.03
2024-04-23T02:01:18.494Z,26.03
2024-04-23T02:01:48.555Z,26.06
2024-04-23T02:02:18.549Z,26.05
2024-04-23T02:02:48.779Z,26.02
2024-04-23T02:03:18.755Z,26.05
2024-04-23T02:03:48.906Z,26.05
2024-04-23T02:04:18.872Z,26.02
2024-04-23T02:04:49.097Z,26.05
2024-04-23T02:05:18.934Z,26.03
2024-04-23T02:05:49.016Z,26.02
2024-04-23T02:06:19.109Z,26.05
2024-04-23T02:06:49.193Z,26.05
2024-04-23T02:07:19.272Z,26.05
2024-04-23T02:07:49.473Z,26.03
2024-04-23T02:08:19.443Z,26.02
2024-04-23T02:08:49.511Z,26.03
2024-04-23T02:09:19.586Z,26.05
2024-04-23T02:09:49.673Z,26.03
2024-04-23T02:10:19.742Z,26.02
2024-04-23T02:10:50.012Z,26.02
2024-04-23T02:11:20.152Z,26.02
2024-04-23T02:11:50.018Z,26.03
2024-04-23T02:12:19.979Z,26.03
2024-04-23T02:12:50.081Z,26.02
2024-04-23T02:13:20.070Z,26.03
2024-04-23T02:13:50.203Z,26.03
2024-04-23T02:14:20.202Z,26.05
2024-04-23T02:14:50.319Z,26.05
2024-04-23T02:15:20.435Z,26.05
2024-04-23T02:15:50.458Z,26.03
2024-04-23T02:16:20.573Z,26.02
2024-04-23T02:16:50.728Z,26.03
2024-04-23T02:17:20.816Z,26.03
2024-04-23T02:17:50.885Z,26.02
2024-04-23T02:18:20.966Z,26.05
2024-04-23T02:18:50.999Z,26.05
2024-04-23T02:19:21.096Z,26.05
2024-04-23T02:19:51.291Z,26.03
2024-04-23T02:20:21.286Z,26.03
2024-04-23T02:20:51.266Z,26.05
2024-04-23T02:21:21.384Z,26.03
2024-04-23T02:21:51.384Z,26.02
2024-04-23T02:22:21.498Z,26.03
2024-04-23T02:22:51.657Z,26.03
2024-04-23T02:23:21.618Z,26.02
2024-04-23T02:23:51.732Z,26.03
2024-04-23T02:24:21.735Z,26.03
2024-04-23T02:24:51.857Z,26.02
2024-04-23T02:25:24.043Z,26.03
2024-04-23T02:26:21.870Z,26.05
2024-04-23T02:26:51.855Z,26.05
2024-04-23T02:27:21.959Z,26.03
2024-04-23T02:27:52.076Z,26.05
2024-04-23T02:28:22.193Z,26.03
2024-04-23T02:28:52.362Z,26.03
2024-04-23T02:29:22.379Z,26.05
2024-04-23T02:29:52.498Z,26.03
2024-04-23T02:30:22.488Z,26.03
2024-04-23T02:30:52.640Z,26.00
2024-04-23T02:31:22.651Z,26.03
2024-04-23T02:31:52.720Z,26.02
2024-04-23T02:32:22.770Z,26.03
2024-04-23T02:32:52.884Z,26.05
2024-04-23T02:33:23.039Z,26.02
2024-04-23T02:33:52.960Z,26.05
2024-04-23T02:34:22.959Z,26.03
2024-04-23T02:34:52.967Z,26.03
2024-04-23T02:35:22.988Z,26.03
2024-04-23T02:35:53.101Z,26.03
2024-04-23T02:36:23.204Z,26.02
2024-04-23T02:36:53.321Z,26.02
2024-04-23T02:37:23.470Z,26.03
2024-04-23T02:37:53.526Z,26.03
2024-04-23T02:38:23.533Z,26.05
2024-04-23T02:38:53.642Z,26.02
2024-04-23T02:39:23.653Z,26.03
2024-04-23T02:40:23.750Z,26.05
2024-04-23T02:40:53.894Z,26.02
2024-04-23T02:41:23.886Z,26.03
2024-04-23T02:41:53.901Z,26.00
2024-04-23T02:42:23.996Z,26.03
2024-04-23T02:42:53.992Z,26.02
2024-04-23T02:43:24.005Z,26.02
2024-04-23T02:43:54.032Z,26.05
2024-04-23T02:44:54.122Z,26.00
2024-04-23T02:45:24.116Z,26.02
2024-04-23T02:45:54.230Z,25.99
2024-04-23T02:46:24.345Z,25.99
2024-04-23T02:46:54.715Z,26.02
2024-04-23T02:47:24.538Z,26.00
2024-04-23T02:47:54.682Z,26.00
2024-04-23T02:48:24.688Z,25.99
2024-04-23T02:48:54.591Z,26.02
2024-04-23T02:49:24.711Z,25.97
2024-04-23T02:49:54.894Z,26.00
2024-04-23T02:50:24.911Z,25.99
2024-04-23T02:50:55.029Z,26.02
2024-04-23T02:51:25.024Z,26.02
2024-04-23T02:51:55.132Z,26.00
2024-04-23T02:52:25.293Z,26.00
2024-04-23T02:52:55.410Z,25.99
2024-04-23T02:53:25.409Z,25.99
2024-04-23T02:53:55.530Z,25.99
2024-04-23T02:54:25.638Z,25.97
2024-04-23T02:54:55.774Z,25.97
2024-04-23T02:55:25.932Z,25.99
2024-04-23T02:55:55.926Z,25.99
2024-04-23T02:56:25.964Z,25.99
2024-04-23T02:56:56.106Z,26.00
2024-04-23T02:57:26.099Z,26.00
2024-04-23T02:58:26.222Z,25.99
2024-04-23T02:58:56.311Z,25.99
2024-04-23T02:59:26.326Z,25.99
2024-04-23T02:59:56.437Z,25.99
2024-04-23T03:00:26.551Z,25.97
2024-04-23T03:00:56.727Z,25.97
2024-04-23T03:01:26.767Z,25.97
2024-04-23T03:01:56.789Z,25.96
2024-04-23T03:02:26.846Z,25.97
2024-04-23T03:02:56.885Z,25.99
2024-04-23T03:03:26.970Z,26.00
2024-04-23T03:03:56.919Z,25.97
2024-04-23T03:04:27.000Z,25.97
2024-04-23T03:04:57.119Z,25.99
2024-04-23T03:05:27.118Z,25.97
2024-04-23T03:05:57.189Z,25.97
2024-04-23T03:06:27.268Z,25.97
2024-04-23T03:06:57.360Z,25.95
2024-04-23T03:07:27.489Z,25.97
2024-04-23T03:07:57.764Z,25.97
2024-04-23T03:08:27.615Z,25.97
2024-04-23T03:08:57.690Z,25.95
2024-04-23T03:09:27.774Z,25.96
2024-04-23T03:09:57.845Z,25.99
2024-04-23T03:10:27.942Z,25.99
2024-04-23T03:10:58.106Z,25.97
2024-04-23T03:11:28.119Z,25.97
2024-04-23T03:11:58.221Z,25.96
2024-04-23T03:12:28.295Z,25.96
2024-04-23T03:12:58.393Z,25.97
2024-04-23T03:13:28.536Z,25.96
2024-04-23T03:13:58.751Z,25.96
2024-04-23T03:14:28.585Z,25.97
2024-04-23T03:14:58.594Z,25.97
2024-04-23T03:15:28.720Z,25.96
2024-04-23T03:15:58.704Z,25.96
2024-04-23T03:16:28.784Z,25.96
2024-04-23T03:16:58.864Z,25.97
2024-04-23T03:17:28.801Z,25.96
2024-04-23T03:17:58.823Z,25.96
2024-04-23T03:18:28.894Z,25.93
2024-04-23T03:18:58.923Z,25.96
2024-04-23T03:19:28.990Z,25.97
2024-04-23T03:19:58.986Z,25.93
2024-04-23T03:20:29.091Z,25.97
2024-04-23T03:20:59.233Z,25.96
2024-04-23T03:21:29.203Z,25.95
2024-04-23T03:21:59.319Z,25.97
2024-04-23T03:22:29.339Z,25.95
2024-04-23T03:22:59.535Z,25.95
2024-04-23T03:23:29.423Z,25.93
2024-04-23T03:23:59.535Z,25.95
2024-04-23T03:24:29.655Z,25.95
2024-04-23T03:24:59.768Z,25.95
2024-04-23T03:25:29.921Z,25.95
2024-04-23T03:25:59.967Z,25.95
2024-04-23T03:26:29.999Z,25.95
2024-04-23T03:27:00.151Z,25.95
2024-04-23T03:27:30.161Z,25.95
2024-04-23T03:28:00.302Z,25.96
2024-04-23T03:28:30.405Z,25.95
2024-04-23T03:29:00.716Z,25.93
2024-04-23T03:29:30.626Z,25.96
2024-04-23T03:30:00.771Z,25.95
2024-04-23T03:30:30.751Z,25.96
2024-04-23T03:31:00.863Z,25.96
2024-04-23T03:31:31.019Z,25.95
2024-04-23T03:32:01.091Z,25.92
2024-04-23T03:32:31.150Z,25.95
2024-04-23T03:33:01.149Z,25.93
2024-04-23T03:33:31.048Z,25.95
2024-04-23T03:34:01.037Z,25.96
2024-04-23T03:34:31.063Z,25.96
2024-04-23T03:35:01.151Z,25.93
2024-04-23T03:35:31.156Z,25.95
2024-04-23T03:36:01.158Z,25.96
2024-04-23T03:36:31.269Z,25.96
2024-04-23T03:37:01.402Z,25.96
2024-04-23T03:37:31.420Z,25.92
2024-04-23T03:38:01.431Z,25.93
2024-04-23T03:38:31.409Z,25.92
2024-04-23T03:39:01.535Z,25.92
2024-04-23T03:39:31.646Z,25.95
2024-04-23T03:40:01.647Z,25.95
2024-04-23T03:40:31.653Z,25.97
2024-04-23T03:41:01.783Z,25.96
2024-04-23T03:41:31.730Z,25.97
2024-04-23T03:42:01.888Z,25.95
2024-04-23T03:42:31.928Z,25.96
2024-04-23T03:43:02.036Z,25.88
2024-04-23T03:43:32.050Z,25.89
2024-04-23T03:44:02.194Z,25.88
2024-04-23T03:44:33.649Z,25.92
2024-04-23T03:45:02.187Z,25.95
2024-04-23T03:45:32.317Z,25.93
2024-04-23T03:46:02.338Z,25.95
2024-04-23T03:46:32.387Z,25.93
2024-04-23T03:47:02.474Z,25.93
2024-04-23T03:47:32.565Z,25.93
2024-04-23T03:48:02.653Z,25.96
2024-04-23T03:48:32.515Z,25.99
2024-04-23T03:49:02.537Z,25.97
2024-04-23T03:49:32.593Z,26.02
2024-04-23T03:50:02.750Z,26.05
2024-04-23T03:50:32.680Z,26.05
2024-04-23T03:51:02.699Z,26.03
2024-04-23T03:51:32.793Z,26.09
2024-04-23T03:52:02.909Z,26.09
2024-04-23T03:52:33.064Z,26.10
2024-04-23T03:53:03.089Z,26.09
2024-04-23T03:53:33.082Z,26.12
2024-04-23T03:54:03.094Z,26.15
2024-04-23T03:55:03.154Z,26.13
2024-04-23T03:55:33.172Z,26.15
2024-04-23T03:56:03.319Z,26.16
2024-04-23T03:56:33.282Z,26.17
2024-04-23T03:57:03.307Z,26.17
2024-04-23T03:57:33.294Z,26.17
2024-04-23T03:58:03.455Z,26.20
2024-04-23T03:58:33.476Z,26.20
2024-04-23T03:59:03.485Z,26.22
2024-04-23T03:59:33.466Z,26.22
2024-04-23T04:00:03.573Z,26.22
2024-04-23T04:00:33.694Z,26.20
2024-04-23T04:01:03.832Z,26.23
2024-04-23T04:01:33.934Z,26.26
2024-04-23T04:02:03.994Z,26.24
2024-04-23T04:02:34.125Z,26.26
2024-04-23T04:03:04.091Z,26.26
2024-04-23T04:03:34.120Z,26.26
2024-04-23T04:04:04.116Z,26.26
2024-04-23T04:04:34.246Z,26.30
2024-04-23T04:05:04.270Z,26.30
2024-04-23T04:05:34.248Z,26.32
2024-04-23T04:06:04.383Z,26.33
2024-04-23T04:06:34.486Z,26.34
2024-04-23T04:07:04.597Z,26.34
2024-04-23T04:07:34.646Z,26.36
2024-04-23T04:08:04.934Z,26.37
2024-04-23T04:08:34.657Z,26.37
2024-04-23T04:09:34.872Z,26.40
2024-04-23T04:10:04.980Z,26.40
2024-04-23T04:10:35.166Z,26.40
2024-04-23T04:11:05.364Z,26.40
2024-04-23T04:11:35.436Z,26.44
2024-04-23T04:12:05.294Z,26.43
2024-04-23T04:12:35.304Z,26.46
2024-04-23T04:13:17.014Z,26.47
2024-04-23T04:13:35.434Z,26.47
2024-04-23T04:14:05.571Z,26.48
2024-04-23T04:14:35.519Z,26.50
2024-04-23T04:15:05.540Z,26.51
2024-04-23T04:15:35.576Z,26.50
2024-04-23T04:16:05.621Z,26.51
2024-04-23T04:16:36.217Z,26.51
2024-04-23T04:17:05.805Z,26.53
2024-04-23T04:17:35.993Z,26.53
2024-04-23T04:18:05.893Z,26.57
2024-04-23T04:18:35.795Z,26.55
2024-04-23T04:19:05.818Z,26.57
2024-04-23T04:19:35.887Z,26.58
2024-04-23T04:20:05.967Z,26.58
2024-04-23T04:20:35.994Z,26.60
2024-04-23T04:21:06.025Z,26.61
2024-04-23T04:21:36.070Z,26.61
2024-04-23T04:22:06.158Z,26.63
2024-04-23T04:22:36.238Z,26.64
2024-04-23T04:23:06.306Z,26.64
2024-04-23T04:23:36.332Z,26.63
2024-04-23T04:24:06.367Z,26.65
2024-04-23T04:24:36.398Z,26.63
2024-04-23T04:25:06.424Z,26.65
2024-04-23T04:25:36.507Z,26.65
2024-04-23T04:26:06.601Z,26.67
2024-04-23T04:26:36.639Z,26.67
2024-04-23T04:27:06.672Z,26.70
2024-04-23T04:27:36.719Z,26.68
2024-04-23T04:28:06.739Z,26.71
2024-04-23T04:28:36.865Z,26.71
2024-04-23T04:29:06.921Z,26.70
2024-04-23T04:29:36.960Z,26.73
2024-04-23T04:30:06.996Z,26.71
2024-04-23T04:30:37.035Z,26.71
2024-04-23T04:31:07.084Z,26.73
2024-04-23T04:31:37.143Z,26.71
2024-04-23T04:32:07.284Z,26.71
2024-04-23T04:32:37.299Z,26.64
2024-04-23T04:33:07.358Z,26.64
2024-04-23T04:33:37.379Z,26.67
2024-04-23T04:34:07.299Z,26.67
2024-04-23T04:34:37.391Z,26.61
2024-04-23T04:35:07.460Z,26.61
2024-04-23T04:35:37.520Z,26.64
2024-04-23T04:36:07.573Z,26.63
2024-04-23T04:36:37.605Z,26.63
2024-04-23T04:37:07.647Z,26.64
2024-04-23T04:37:37.728Z,26.64
2024-04-23T04:38:07.862Z,26.64
2024-04-23T04:38:37.835Z,26.65
2024-04-23T04:39:07.986Z,26.63
2024-04-23T04:39:37.955Z,26.58
2024-04-23T04:40:07.982Z,26.63
2024-04-23T04:40:38.034Z,26.63
2024-04-23T04:41:08.126Z,26.64
2024-04-23T04:41:38.144Z,26.68
2024-04-23T04:42:08.177Z,26.68
2024-04-23T04:42:38.203Z,26.70
2024-04-23T04:43:08.244Z,26.68
2024-04-23T04:43:38.353Z,26.71
2024-04-23T04:44:08.435Z,26.75
2024-04-23T04:44:38.463Z,26.73
2024-04-23T04:45:08.510Z,26.74
2024-04-23T04:45:38.656Z,26.73
2024-04-23T04:46:08.625Z,26.75
2024-04-23T04:46:38.783Z,26.80
2024-04-23T04:47:11.616Z,26.80
2024-04-23T04:47:38.899Z,26.80
2024-04-23T04:48:09.047Z,26.81
2024-04-23T04:48:38.943Z,26.81
2024-04-23T04:49:08.991Z,26.85
2024-04-23T04:49:39.062Z,26.85
2024-04-23T04:50:09.137Z,26.87
2024-04-23T04:50:39.152Z,26.87
2024-04-23T04:51:09.180Z,26.87
2024-04-23T04:51:39.196Z,26.88
2024-04-23T04:52:09.232Z,26.88
2024-04-23T04:52:39.252Z,26.90
2024-04-23T04:53:09.298Z,26.91
2024-04-23T04:53:39.307Z,26.90
2024-04-23T04:54:09.343Z,26.91
2024-04-23T04:54:39.379Z,26.92
2024-04-23T04:55:09.424Z,26.92
2024-04-23T04:55:39.491Z,26.92
2024-04-23T04:56:09.589Z,26.92
2024-04-23T04:56:39.623Z,26.94
2024-04-23T04:57:09.655Z,26.97
2024-04-23T04:57:39.683Z,26.95
2024-04-23T04:58:09.734Z,26.97
2024-04-23T04:58:39.821Z,26.98
2024-04-23T04:59:09.844Z,26.98
2024-04-23T04:59:39.874Z,26.97
2024-04-23T05:00:09.923Z,26.98
2024-04-23T05:00:42.447Z,26.98
2024-04-23T05:01:09.958Z,26.99
2024-04-23T05:01:40.035Z,26.99
2024-04-23T05:02:10.084Z,26.99
2024-04-23T05:02:40.219Z,27.01
2024-04-23T05:03:10.110Z,27.01
2024-04-23T05:03:40.228Z,27.01
2024-04-23T05:04:10.283Z,27.01
2024-04-23T05:04:40.327Z,27.02
2024-04-23T05:05:10.456Z,27.01
2024-04-23T05:05:40.318Z,27.01
2024-04-23T05:06:10.435Z,27.03
2024-04-23T05:06:40.583Z,27.01
2024-04-23T05:07:10.572Z,27.02
2024-04-23T05:07:40.751Z,27.02
2024-04-23T05:08:10.755Z,27.02
2024-04-23T05:08:40.764Z,27.03
2024-04-23T05:09:40.876Z,27.03
2024-04-23T05:10:10.873Z,27.03
2024-04-23T05:10:41.060Z,27.03
2024-04-23T05:11:11.114Z,27.03
2024-04-23T05:11:41.256Z,27.03
2024-04-23T05:12:11.269Z,27.02
2024-04-23T05:12:41.302Z,27.03
2024-04-23T05:13:11.355Z,27.05
2024-04-23T05:13:41.389Z,27.02
2024-04-23T05:14:11.408Z,27.05
2024-04-23T05:14:41.435Z,27.05
2024-04-23T05:15:11.466Z,27.03
2024-04-23T05:15:41.518Z,27.03
2024-04-23T05:16:11.574Z,27.05
2024-04-23T05:16:41.634Z,27.03
2024-04-23T05:17:11.784Z,27.05
2024-04-23T05:17:41.865Z,26.99
2024-04-23T05:18:11.955Z,27.03
2024-04-23T05:18:41.837Z,27.02
2024-04-23T05:19:11.888Z,27.05
2024-04-23T05:19:41.983Z,27.03
2024-04-23T05:20:12.011Z,27.05
2024-04-23T05:20:42.037Z,27.05
2024-04-23T05:21:12.086Z,27.05
2024-04-23T05:21:42.103Z,26.97
2024-04-23T05:22:12.135Z,26.97
2024-04-23T05:22:42.203Z,26.95
2024-04-23T05:23:12.202Z,26.95
2024-04-23T05:23:42.226Z,26.97
2024-04-23T05:24:12.251Z,26.95
2024-04-23T05:24:42.284Z,26.94
2024-04-23T05:25:12.314Z,26.94
2024-04-23T05:25:42.353Z,26.97
2024-04-23T05:26:12.372Z,26.95
2024-04-23T05:26:42.396Z,26.95
2024-04-23T05:27:12.437Z,26.95
2024-04-23T05:27:42.476Z,26.95
2024-04-23T05:28:12.511Z,26.94
2024-04-23T05:28:42.570Z,26.97
2024-04-23T05:29:12.581Z,26.94
2024-04-23T05:29:42.603Z,26.95
2024-04-23T05:30:12.625Z,26.97
2024-04-23T05:30:42.653Z,26.94
2024-04-23T05:31:12.696Z,26.95
2024-04-23T05:31:42.759Z,26.94
2024-04-23T05:32:12.842Z,26.95
2024-04-23T05:32:43.069Z,26.97
2024-04-23T05:33:13.012Z,26.94
2024-04-23T05:33:43.082Z,26.97
2024-04-23T05:34:13.025Z,26.97
2024-04-23T05:34:43.074Z,26.98
2024-04-23T05:35:13.116Z,26.97
2024-04-23T05:35:43.161Z,26.95
2024-04-23T05:36:13.231Z,26.97
2024-04-23T05:36:43.252Z,26.97
2024-04-23T05:37:13.284Z,27.01
2024-04-23T05:37:43.358Z,26.98
2024-04-23T05:38:16.070Z,26.97
2024-04-23T05:38:43.394Z,27.01
2024-04-23T05:39:13.427Z,27.01
2024-04-23T05:39:43.455Z,27.01
2024-04-23T05:40:13.486Z,26.99
2024-04-23T05:40:43.536Z,26.99
2024-04-23T05:41:13.664Z,27.01
2024-04-23T05:41:43.696Z,27.03
2024-04-23T05:42:13.707Z,27.03
2024-04-23T05:42:43.738Z,27.01
2024-04-23T05:43:13.781Z,27.03
2024-04-23T05:43:43.940Z,27.02
2024-04-23T05:44:13.857Z,27.03
2024-04-23T05:44:43.895Z,27.03
2024-04-23T05:45:13.937Z,27.06
2024-04-23T05:45:43.976Z,27.06
2024-04-23T05:46:14.025Z,27.05
2024-04-23T05:46:44.112Z,27.08
2024-04-23T05:47:14.179Z,27.06
2024-04-23T05:47:44.284Z,27.08
2024-04-23T05:48:14.434Z,27.08
2024-04-23T05:48:44.374Z,27.06
2024-04-23T05:49:14.388Z,27.09
2024-04-23T05:49:44.495Z,27.03
2024-04-23T05:50:14.574Z,26.99
2024-04-23T05:50:44.843Z,26.99
2024-04-23T05:51:14.673Z,26.98
2024-04-23T05:52:22.368Z,27.01
2024-04-23T05:52:44.856Z,27.02
2024-04-23T05:53:14.877Z,27.02
2024-04-23T05:53:44.907Z,27.01
2024-04-23T05:54:14.945Z,27.05
2024-04-23T05:54:44.995Z,27.03
2024-04-23T05:55:15.046Z,27.06
2024-04-23T05:55:47.781Z,27.05
2024-04-23T05:56:15.118Z,27.05
2024-04-23T05:56:45.213Z,27.08
2024-04-23T05:57:15.233Z,27.06
2024-04-23T05:57:45.260Z,27.09
2024-04-23T05:58:15.290Z,27.09
2024-04-23T05:58:45.356Z,27.09
2024-04-23T05:59:15.394Z,27.09
2024-04-23T05:59:45.430Z,27.12
2024-04-23T06:00:15.476Z,27.12
2024-04-23T06:00:45.546Z,27.11
2024-04-23T06:01:17.840Z,27.13
2024-04-23T06:01:45.710Z,27.13
2024-04-23T06:02:15.666Z,27.12
2024-04-23T06:03:24.993Z,27.12
2024-04-23T06:03:54.725Z,27.12
2024-04-23T06:04:54.960Z,27.13
2024-04-23T06:05:25.011Z,27.13
2024-04-23T06:05:54.989Z,27.15
2024-04-23T06:06:25.084Z,27.12
2024-04-23T06:06:55.163Z,27.13
2024-04-23T06:07:25.240Z,27.12
2024-04-23T06:07:55.397Z,27.15
2024-04-23T06:08:25.367Z,27.13
2024-04-23T06:08:55.474Z,27.15
2024-04-23T06:09:25.563Z,27.16
2024-04-23T06:09:55.630Z,27.16
2024-04-23T06:10:25.736Z,27.15
2024-04-23T06:10:55.883Z,27.13
2024-04-23T06:11:26.071Z,27.15
2024-04-23T06:11:55.875Z,27.19
2024-04-23T06:12:25.936Z,27.19
2024-04-23T06:12:56.046Z,27.12
2024-04-23T06:13:26.042Z,27.13
2024-04-23T06:13:56.079Z,27.12
2024-04-23T06:14:26.067Z,27.13
2024-04-23T06:14:56.087Z,27.12
2024-04-23T06:15:26.188Z,27.12
2024-04-23T06:15:56.310Z,27.12
2024-04-23T06:16:26.308Z,27.13
2024-04-23T06:16:56.481Z,27.16
2024-04-23T06:17:32.018Z,27.06
2024-04-23T06:17:56.605Z,27.11
2024-04-23T06:18:26.540Z,27.09
2024-04-23T06:18:56.688Z,27.13
2024-04-23T06:19:26.697Z,27.08
2024-04-23T06:19:56.906Z,27.09
2024-04-23T06:20:26.840Z,27.12
2024-04-23T06:20:56.912Z,27.12
2024-04-23T06:21:26.913Z,27.15
2024-04-23T06:21:57.025Z,27.15
2024-04-23T06:22:27.150Z,27.16
2024-04-23T06:22:57.187Z,27.16
2024-04-23T06:23:27.173Z,27.18
2024-04-23T06:23:57.190Z,27.18
2024-04-23T06:24:27.208Z,27.19
2024-04-23T06:24:57.224Z,27.19
2024-04-23T06:25:27.248Z,27.21
2024-04-23T06:25:57.265Z,27.21
2024-04-23T06:26:27.235Z,27.22
2024-04-23T06:26:57.356Z,27.11
2024-04-23T06:27:27.482Z,27.12
2024-04-23T06:27:57.484Z,27.13
2024-04-23T06:28:57.706Z,27.15
2024-04-23T06:29:27.652Z,27.12
2024-04-23T06:29:57.659Z,27.11
2024-04-23T06:30:27.765Z,27.11
2024-04-23T06:30:57.756Z,27.13
2024-04-23T06:31:57.840Z,27.12
2024-04-23T06:32:28.115Z,27.11
2024-04-23T06:32:58.033Z,27.11
2024-04-23T06:33:28.158Z,27.09
2024-04-23T06:33:58.080Z,27.08
2024-04-23T06:34:28.184Z,27.01
2024-04-23T06:34:58.240Z,27.02
2024-04-23T06:35:28.266Z,26.99
2024-04-23T06:35:58.387Z,27.01
2024-04-23T06:36:28.494Z,27.01
2024-04-23T06:36:58.513Z,27.02
2024-04-23T06:37:58.642Z,26.99
2024-04-23T06:38:28.641Z,26.99